Time;durP1;ratioP1;P1;durP2;ratioP2;P2;SDS_P1;SDS_P2;PMS_P1;PMS_P2;Temp;Humidity;BMP_temperature;BMP_pressure;BME280_temperature;BME280_humidity;BME280_pressure;Samples;Min_cycle;Max_cycle;Signal;HPM_P1;HPM_P2
2021/08/16 00:00:44;;;;;;;7.50;6.53;;;;;;;18.86;100.00;95507.13;5031111;28;20422;-74
2021/08/16 00:03:10;;;;;;;8.73;6.20;;;;;;;18.86;100.00;95500.06;5031354;28;20502;-74
2021/08/16 00:05:36;;;;;;;9.50;6.00;;;;;;;18.88;100.00;95504.38;5030808;28;20481;-74
2021/08/16 00:08:01;;;;;;;9.63;5.80;;;;;;;18.84;100.00;95511.72;5031069;28;20418;-74
2021/08/16 00:10:27;;;;;;;10.40;6.10;;;;;;;18.90;100.00;95511.09;5030946;28;20931;-74
2021/08/16 00:12:52;;;;;;;9.20;6.80;;;;;;;18.95;100.00;95503.59;5031030;28;20427;-74
2021/08/16 00:15:17;;;;;;;9.53;6.60;;;;;;;18.95;100.00;95500.13;5030632;28;20429;-74
2021/08/16 00:17:44;;;;;;;9.25;6.00;;;;;;;18.96;100.00;95488.66;5030843;28;20434;-74
2021/08/16 00:20:11;;;;;;;7.07;5.95;;;;;;;18.96;100.00;95497.34;5030725;28;20478;-74
2021/08/16 00:22:36;;;;;;;8.57;6.27;;;;;;;18.92;100.00;95496.03;5030825;28;20516;-74
2021/08/16 00:25:02;;;;;;;13.20;6.43;;;;;;;18.97;100.00;95503.44;5030930;28;20430;-74
2021/08/16 00:27:29;;;;;;;10.33;6.20;;;;;;;19.00;100.00;95497.88;5029300;28;20896;-74
2021/08/16 00:29:54;;;;;;;7.78;6.32;;;;;;;19.02;100.00;95496.75;5030807;28;20790;-74
2021/08/16 00:32:20;;;;;;;9.13;5.80;;;;;;;19.05;100.00;95479.84;5030800;28;20422;-74
2021/08/16 00:34:46;;;;;;;6.80;6.10;;;;;;;18.93;100.00;95488.97;5029446;28;20419;-74
2021/08/16 00:37:12;;;;;;;13.02;6.93;;;;;;;18.88;100.00;95481.56;5030637;28;20415;-74
2021/08/16 00:39:37;;;;;;;9.27;6.60;;;;;;;18.80;100.00;95482.34;5034729;28;20497;-74
2021/08/16 00:42:05;;;;;;;9.80;6.83;;;;;;;18.82;100.00;95475.13;5034690;28;20423;-74
2021/08/16 00:44:30;;;;;;;10.87;6.97;;;;;;;18.81;100.00;95464.78;5034741;28;20896;-74
2021/08/16 00:46:56;;;;;;;9.63;6.57;;;;;;;18.93;100.00;95474.03;5034180;28;20433;-74
2021/08/16 00:49:22;;;;;;;8.07;6.78;;;;;;;19.01;100.00;95465.41;5034575;28;20876;-74
2021/08/16 00:51:49;;;;;;;12.00;6.73;;;;;;;19.03;100.00;95466.91;5033213;28;20509;-74
2021/08/16 00:54:14;;;;;;;8.88;6.97;;;;;;;19.03;100.00;95466.06;5033291;28;20423;-74
2021/08/16 00:56:40;;;;;;;7.35;5.97;;;;;;;19.03;100.00;95468.69;5034281;28;20987;-74
2021/08/16 00:59:08;;;;;;;8.38;5.82;;;;;;;19.01;100.00;95468.84;5034646;28;20472;-74
2021/08/16 01:01:34;;;;;;;9.02;6.15;;;;;;;19.03;100.00;95471.31;5034442;28;20411;-74
2021/08/16 01:03:59;;;;;;;11.50;6.23;;;;;;;19.01;100.00;95471.47;5034801;28;20827;-74
2021/08/16 01:06:25;;;;;;;6.85;6.15;;;;;;;18.99;100.00;95477.88;5034332;28;20415;-74
2021/08/16 01:08:52;;;;;;;11.50;6.60;;;;;;;18.94;100.00;95480.94;5034241;28;20753;-74
2021/08/16 01:11:19;;;;;;;8.73;6.25;;;;;;;18.90;100.00;95476.97;5034277;28;20461;-74
2021/08/16 01:13:46;;;;;;;8.80;6.38;;;;;;;18.89;100.00;95480.59;5032886;28;20442;-74
2021/08/16 01:16:12;;;;;;;10.23;7.05;;;;;;;18.69;100.00;95484.34;5033985;28;20453;-74
2021/08/16 01:18:37;;;;;;;10.57;6.22;;;;;;;18.68;100.00;95487.94;5033970;28;20446;-74
2021/08/16 01:21:04;;;;;;;8.60;6.65;;;;;;;18.66;100.00;95477.63;5032697;28;20431;-74
2021/08/16 01:23:30;;;;;;;9.40;5.63;;;;;;;18.68;100.00;95480.91;5032786;28;20948;-75
2021/08/16 01:25:57;;;;;;;12.05;5.97;;;;;;;18.67;100.00;95483.69;5033745;28;20423;-74
2021/08/16 01:28:25;;;;;;;9.60;6.00;;;;;;;18.71;100.00;95472.75;5033794;28;20880;-75
2021/08/16 01:30:54;;;;;;;7.40;5.75;;;;;;;18.56;100.00;95467.22;5032577;28;20502;-76
2021/08/16 01:33:20;;;;;;;9.98;6.25;;;;;;;18.55;100.00;95470.00;5032421;28;20526;-75
2021/08/16 01:35:45;;;;;;;6.22;5.63;;;;;;;18.46;100.00;95470.88;5032402;28;20502;-75
2021/08/16 01:38:11;;;;;;;7.43;6.47;;;;;;;18.38;100.00;95464.59;5033613;28;20490;-75
2021/08/16 01:40:37;;;;;;;9.13;6.23;;;;;;;18.43;100.00;95458.06;5033894;28;20461;-75
2021/08/16 01:43:03;;;;;;;7.55;6.30;;;;;;;18.40;100.00;95467.09;5033606;28;20418;-75
2021/08/16 01:45:30;;;;;;;9.13;6.25;;;;;;;18.29;100.00;95464.72;5032146;28;20427;-74
2021/08/16 01:47:55;;;;;;;9.75;5.90;;;;;;;18.30;100.00;95461.91;5033412;28;20522;-75
2021/08/16 01:50:21;;;;;;;9.30;7.00;;;;;;;18.29;100.00;95460.28;5032125;28;20502;-75
2021/08/16 01:52:46;;;;;;;8.20;6.57;;;;;;;18.22;100.00;95459.25;5033796;28;20419;-75
2021/08/16 01:55:12;;;;;;;9.75;7.47;;;;;;;18.16;100.00;95459.00;5033263;28;20931;-75
2021/08/16 01:57:38;;;;;;;12.53;7.13;;;;;;;18.13;100.00;95460.97;5034196;28;20443;-75
2021/08/16 02:00:04;;;;;;;10.43;6.97;;;;;;;18.14;100.00;95461.78;5035589;28;20430;-74
2021/08/16 02:02:31;;;;;;;8.35;7.00;;;;;;;18.17;100.00;95452.78;5034610;28;20423;-74
2021/08/16 02:04:57;;;;;;;9.98;7.03;;;;;;;18.12;100.00;95456.69;5034427;28;20772;-74
2021/08/16 02:07:22;;;;;;;9.20;6.70;;;;;;;18.16;100.00;95467.69;5031948;28;20430;-74
2021/08/16 02:09:48;;;;;;;8.70;6.78;;;;;;;18.19;100.00;95466.56;5033266;28;20415;-74
2021/08/16 02:12:13;;;;;;;10.13;7.20;;;;;;;18.25;100.00;95461.56;5033000;28;20418;-74
2021/08/16 02:14:39;;;;;;;7.77;6.50;;;;;;;18.31;100.00;95462.75;5032958;28;20779;-75
2021/08/16 02:17:04;;;;;;;9.60;6.67;;;;;;;18.23;100.00;95465.31;5032677;28;20546;-75
2021/08/16 02:19:31;;;;;;;11.55;7.07;;;;;;;18.29;100.00;95464.72;5032886;28;20478;-74
2021/08/16 02:21:57;;;;;;;9.02;7.10;;;;;;;18.28;100.00;95470.91;5031808;28;20843;-74
2021/08/16 02:24:22;;;;;;;8.60;6.50;;;;;;;18.32;100.00;95480.13;5032782;28;20509;-74
2021/08/16 02:26:47;;;;;;;9.13;6.83;;;;;;;18.34;100.00;95483.41;5032724;28;20510;-74
2021/08/16 02:29:14;;;;;;;9.30;6.55;;;;;;;18.37;100.00;95486.56;5031590;28;20477;-75
2021/08/16 02:31:40;;;;;;;7.35;6.63;;;;;;;18.38;100.00;95480.34;5032770;28;20761;-75
2021/08/16 02:34:05;;;;;;;8.93;6.30;;;;;;;18.37;100.00;95483.94;5032786;28;20429;-75
2021/08/16 02:36:32;;;;;;;8.40;6.90;;;;;;;18.32;100.00;95485.38;5032467;28;20890;-74
2021/08/16 02:38:58;;;;;;;7.97;6.57;;;;;;;18.38;100.00;95488.19;5032435;28;20427;-75
2021/08/16 02:41:23;;;;;;;10.32;6.53;;;;;;;18.28;100.00;95487.47;5032590;28;20780;-75
2021/08/16 02:43:49;;;;;;;9.48;6.28;;;;;;;18.33;100.00;95487.84;5032474;28;20458;-75
2021/08/16 02:46:14;;;;;;;7.47;6.73;;;;;;;18.20;100.00;95497.88;5032103;28;20410;-74
2021/08/16 02:48:40;;;;;;;10.67;6.97;;;;;;;18.19;100.00;95500.66;5085264;22;20444;-73
2021/08/16 02:51:05;;;;;;;8.80;6.60;;;;;;;18.13;100.00;95496.81;5050810;28;20425;-73
2021/08/16 02:53:32;;;;;;;7.03;6.33;;;;;;;18.17;100.00;95492.94;5052041;28;20510;-73
2021/08/16 02:55:57;;;;;;;9.83;6.87;;;;;;;18.12;100.00;95496.00;5051742;28;20902;-73
2021/08/16 02:58:23;;;;;;;12.20;7.97;;;;;;;17.96;100.00;95495.84;5051862;28;20425;-73
2021/08/16 03:00:48;;;;;;;8.73;6.70;;;;;;;18.09;100.00;95492.84;5051576;28;20906;-73
2021/08/16 03:03:14;;;;;;;11.27;7.03;;;;;;;18.08;100.00;95492.03;5050689;28;20425;-73
2021/08/16 03:05:39;;;;;;;9.57;6.83;;;;;;;17.95;100.00;95493.34;5051569;28;20418;-73
2021/08/16 03:08:05;;;;;;;16.70;7.33;;;;;;;17.85;100.00;95498.69;5051733;28;20448;-74
2021/08/16 03:10:33;;;;;;;10.75;7.20;;;;;;;17.85;100.00;95511.78;5050184;28;20421;-73
2021/08/16 03:12:59;;;;;;;10.52;6.82;;;;;;;17.85;100.00;95514.41;5051775;28;20418;-73
2021/08/16 03:15:25;;;;;;;10.07;6.75;;;;;;;17.95;100.00;95506.47;5051466;28;20933;-73
2021/08/16 03:17:50;;;;;;;8.67;6.20;;;;;;;17.86;100.00;95514.25;5051524;28;20425;-74
2021/08/16 03:20:16;;;;;;;7.63;6.27;;;;;;;17.80;100.00;95517.47;5051738;28;20782;-73
2021/08/16 03:22:41;;;;;;;7.30;6.10;;;;;;;17.88;100.00;95530.66;5051469;28;20907;-73
2021/08/16 03:25:08;;;;;;;7.53;6.43;;;;;;;17.86;100.00;95539.63;5051397;28;20413;-73
2021/08/16 03:27:34;;;;;;;10.68;6.88;;;;;;;17.88;100.00;95542.94;5051206;28;20787;-73
2021/08/16 03:30:02;;;;;;;8.93;6.55;;;;;;;17.81;100.00;95537.44;5051477;28;20438;-74
2021/08/16 03:32:28;;;;;;;17.73;6.85;;;;;;;17.71;100.00;95530.56;5051284;28;20464;-73
2021/08/16 03:34:53;;;;;;;7.25;6.38;;;;;;;17.73;100.00;95528.66;5051344;28;20417;-73
2021/08/16 03:37:19;;;;;;;14.02;7.15;;;;;;;17.69;100.00;95520.25;5051381;28;20494;-74
2021/08/16 03:39:44;;;;;;;12.23;7.40;;;;;;;17.86;100.00;95529.13;5050059;28;20512;-73
2021/08/16 03:42:10;;;;;;;13.97;7.70;;;;;;;18.07;100.00;95534.13;5050038;28;20463;-73
2021/08/16 03:44:37;;;;;;;11.65;7.82;;;;;;;18.25;100.00;95536.75;5051251;28;20440;-73
2021/08/16 03:47:03;;;;;;;14.60;7.50;;;;;;;18.28;100.00;95534.66;5050602;28;20496;-73
2021/08/16 03:49:28;;;;;;;11.90;7.50;;;;;;;18.37;100.00;95525.88;5051010;28;20463;-73
2021/08/16 03:51:53;;;;;;;9.65;7.70;;;;;;;18.46;100.00;95531.19;5050992;28;20413;-73
2021/08/16 03:54:19;;;;;;;11.30;7.87;;;;;;;18.49;100.00;95533.53;5051243;28;20419;-73
2021/08/16 03:56:45;;;;;;;13.77;7.60;;;;;;;18.46;100.00;95554.81;5050698;28;20424;-73
2021/08/16 03:59:10;;;;;;;9.85;7.47;;;;;;;18.42;100.00;95545.59;5050782;28;20918;-73
2021/08/16 04:01:37;;;;;;;11.35;7.10;;;;;;;18.35;100.00;95540.97;5050916;28;20778;-74
2021/08/16 04:04:02;;;;;;;13.95;6.97;;;;;;;18.13;100.00;95538.75;5050988;28;20771;-73
2021/08/16 04:06:29;;;;;;;9.10;6.60;;;;;;;18.07;100.00;95549.84;5050492;28;20512;-73
2021/08/16 04:08:54;;;;;;;12.95;7.30;;;;;;;18.03;100.00;95562.41;5050605;28;20512;-73
2021/08/16 04:11:20;;;;;;;11.50;6.13;;;;;;;18.09;100.00;95561.00;5049431;28;20520;-73
2021/08/16 04:13:45;;;;;;;7.77;5.97;;;;;;;18.07;100.00;95548.03;5050075;28;20419;-73
2021/08/16 04:16:11;;;;;;;11.10;7.20;;;;;;;17.86;100.00;95552.72;5050443;28;20504;-73
2021/08/16 04:18:37;;;;;;;8.85;6.68;;;;;;;17.93;100.00;95547.72;5050567;28;20839;-73
2021/08/16 04:21:03;;;;;;;13.38;7.55;;;;;;;17.93;100.00;95551.16;5050585;28;20421;-73
2021/08/16 04:23:29;;;;;;;10.07;7.03;;;;;;;17.93;100.00;95553.78;5050921;28;20748;-73
2021/08/16 04:25:54;;;;;;;12.27;7.07;;;;;;;17.89;100.00;95549.81;5050355;28;20417;-74
2021/08/16 04:28:20;;;;;;;8.93;6.77;;;;;;;17.96;100.00;95548.25;5050588;28;20427;-73
2021/08/16 04:30:45;;;;;;;17.73;6.95;;;;;;;17.95;100.00;95557.09;5050584;28;20413;-73
2021/08/16 04:33:11;;;;;;;9.40;6.60;;;;;;;17.92;100.00;95540.84;5049214;28;20428;-73
2021/08/16 04:35:38;;;;;;;14.82;6.72;;;;;;;17.90;100.00;95536.53;5050326;28;20413;-74
2021/08/16 04:38:04;;;;;;;14.93;7.00;;;;;;;17.90;100.00;95543.59;5050497;28;20421;-74
2021/08/16 04:40:29;;;;;;;12.73;6.83;;;;;;;17.81;100.00;95536.63;5050440;28;20455;-74
2021/08/16 04:42:54;;;;;;;13.23;6.77;;;;;;;17.79;100.00;95551.66;5050494;28;20449;-74
2021/08/16 04:45:20;;;;;;;9.67;6.70;;;;;;;17.80;100.00;95558.56;5050422;28;20506;-74
2021/08/16 04:47:46;;;;;;;13.23;7.00;;;;;;;17.78;100.00;95548.22;5050108;28;20417;-74
2021/08/16 04:50:12;;;;;;;10.23;6.37;;;;;;;17.74;100.00;95566.94;5050291;28;20842;-74
2021/08/16 04:52:39;;;;;;;10.10;6.68;;;;;;;17.71;100.00;95564.63;5050379;28;20496;-74
2021/08/16 04:55:06;;;;;;;10.57;6.87;;;;;;;17.66;100.00;95550.16;5050341;28;20471;-74
2021/08/16 04:57:33;;;;;;;14.05;7.55;;;;;;;17.64;100.00;95577.47;5042914;28;20429;-74
2021/08/16 04:59:59;;;;;;;11.50;6.97;;;;;;;17.62;100.00;95571.56;5049291;28;20425;-75
2021/08/16 05:02:24;;;;;;;11.43;6.72;;;;;;;17.65;100.00;95576.50;5050143;28;20455;-74
2021/08/16 05:04:54;;;;;;;12.13;6.63;;;;;;;17.67;100.00;95582.41;5049971;28;20787;-73
2021/08/16 05:07:20;;;;;;;9.18;6.60;;;;;;;17.65;100.00;95581.75;5049888;28;20421;-73
2021/08/16 05:09:48;;;;;;;15.05;6.43;;;;;;;17.68;100.00;95591.91;5050040;28;20437;-73
2021/08/16 05:12:14;;;;;;;11.98;7.18;;;;;;;17.72;100.00;95576.72;5050113;28;20467;-73
2021/08/16 05:14:39;;;;;;;9.98;6.35;;;;;;;17.80;100.00;95584.75;5050036;28;20421;-73
2021/08/16 05:17:05;;;;;;;13.47;7.57;;;;;;;17.81;100.00;95600.31;5049800;28;20421;-73
2021/08/16 05:19:34;;;;;;;14.38;6.53;;;;;;;17.84;100.00;95586.09;5049730;28;20478;-73
2021/08/16 05:22:00;;;;;;;9.88;6.28;;;;;;;17.86;100.00;95592.00;5048777;28;20534;-73
2021/08/16 05:24:28;;;;;;;8.52;6.47;;;;;;;17.84;100.00;95601.81;5051968;28;20504;-73
2021/08/16 05:26:54;;;;;;;16.20;7.13;;;;;;;17.85;100.00;95601.66;5053161;28;20419;-73
2021/08/16 05:29:20;;;;;;;14.57;6.35;;;;;;;17.82;100.00;95609.00;5053614;28;20455;-73
2021/08/16 05:31:45;;;;;;;15.10;6.30;;;;;;;17.81;100.00;95612.59;5053657;28;20444;-73
2021/08/16 05:34:11;;;;;;;13.23;6.60;;;;;;;17.75;100.00;95619.22;5053715;28;20421;-73
2021/08/16 05:36:36;;;;;;;9.40;6.20;;;;;;;17.72;100.00;95632.56;5052006;28;20947;-73
2021/08/16 05:39:02;;;;;;;10.45;5.60;;;;;;;17.72;100.00;95635.19;5053292;28;20421;-69
2021/08/16 05:41:27;;;;;;;11.53;6.40;;;;;;;17.76;100.00;95633.13;5053902;28;20428;-74
2021/08/16 05:43:54;;;;;;;13.27;6.20;;;;;;;17.77;100.00;95637.44;5053446;28;20422;-73
2021/08/16 05:46:19;;;;;;;9.00;5.28;;;;;;;17.77;100.00;95640.03;5053463;28;20413;-73
2021/08/16 05:48:44;;;;;;;8.77;4.60;;;;;;;17.66;100.00;95636.59;5051763;28;20511;-73
2021/08/16 05:51:10;;;;;;;9.20;4.80;;;;;;;17.68;99.04;95646.91;5053214;28;20845;-73
2021/08/16 05:53:35;;;;;;;7.73;4.13;;;;;;;17.61;97.38;95641.44;5053276;28;20420;-73
2021/08/16 05:56:01;;;;;;;9.00;4.80;;;;;;;17.62;96.86;95640.47;5051313;28;20422;-73
2021/08/16 05:58:26;;;;;;;11.40;5.17;;;;;;;17.67;96.52;95650.50;5052956;28;20417;-73
2021/08/16 06:00:53;;;;;;;7.27;5.03;;;;;;;17.72;95.84;95656.13;5053034;28;20417;-73
2021/08/16 06:03:18;;;;;;;7.57;4.28;;;;;;;17.66;96.27;95668.03;5051536;28;21004;-68
2021/08/16 06:05:44;;;;;;;5.13;4.40;;;;;;;17.69;94.68;95655.59;5052835;28;20452;-75
2021/08/16 06:08:09;;;;;;;9.53;4.40;;;;;;;17.77;94.76;95653.97;5052932;28;20514;-72
2021/08/16 06:10:35;;;;;;;7.07;4.20;;;;;;;17.82;94.65;95653.53;5033594;28;20475;-72
2021/08/16 06:13:00;;;;;;;6.88;3.75;;;;;;;17.75;94.24;95653.25;5031852;28;20951;-72
2021/08/16 06:15:26;;;;;;;7.17;3.93;;;;;;;17.73;94.60;95657.00;5032767;28;20880;-74
2021/08/16 06:17:53;;;;;;;6.47;4.03;;;;;;;17.88;94.46;95668.69;5050173;28;20429;-76
2021/08/16 06:20:19;;;;;;;8.07;4.30;;;;;;;17.89;92.86;95678.19;5045600;28;20417;-72
2021/08/16 06:22:45;;;;;;;5.60;4.10;;;;;;;17.97;92.60;95666.97;5053300;28;20452;-73
2021/08/16 06:25:11;;;;;;;7.47;4.30;;;;;;;17.99;92.34;95663.25;5052737;28;20445;-70
2021/08/16 06:27:36;;;;;;;9.43;4.40;;;;;;;17.84;90.57;95675.19;5033395;28;20426;-72
2021/08/16 06:30:02;;;;;;;7.72;4.85;;;;;;;17.90;90.12;95654.44;5052864;28;20405;-72
2021/08/16 06:32:32;;;;;;;7.20;4.63;;;;;;;17.85;89.53;95661.94;5052022;28;20515;-72
2021/08/16 06:34:58;;;;;;;8.60;4.50;;;;;;;17.69;90.10;95676.53;5045779;28;20430;-72
2021/08/16 06:37:24;;;;;;;8.40;4.72;;;;;;;17.79;90.49;95670.34;5032618;28;20446;-72
2021/08/16 06:39:49;;;;;;;10.73;4.45;;;;;;;17.94;89.65;95670.72;5032763;28;20455;-72
2021/08/16 06:42:15;;;;;;;6.33;4.00;;;;;;;17.92;88.62;95677.09;5041883;28;20418;-72
2021/08/16 06:44:40;;;;;;;6.67;4.10;;;;;;;17.89;87.62;95676.38;5053162;28;20423;-72
2021/08/16 06:47:06;;;;;;;6.00;4.03;;;;;;;18.09;87.77;95674.50;5044932;28;20423;-72
2021/08/16 06:49:31;;;;;;;5.70;4.40;;;;;;;18.17;86.58;95671.19;5031660;28;20415;-72
2021/08/16 06:51:58;;;;;;;9.73;4.07;;;;;;;18.19;86.47;95674.47;5030549;28;20427;-72
2021/08/16 06:54:23;;;;;;;5.88;4.10;;;;;;;18.30;87.73;95681.31;5031749;28;20511;-73
2021/08/16 06:56:49;;;;;;;7.40;4.07;;;;;;;18.56;86.34;95694.56;5043156;28;20512;-73
2021/08/16 06:59:26;;;;;;;6.75;3.42;;;;;;;18.66;84.28;95697.13;5051759;28;20417;-74
2021/08/16 07:02:03;;;;;;;7.95;4.18;;;;;;;18.62;84.54;95694.81;5052373;28;20429;-74
2021/08/16 07:04:29;;;;;;;6.35;3.88;;;;;;;18.48;83.97;95705.78;5050545;28;20417;-74
2021/08/16 07:06:55;;;;;;;8.73;4.10;;;;;;;18.54;82.22;95705.22;5049792;28;20414;-74
2021/08/16 07:09:22;;;;;;;9.40;3.90;;;;;;;18.48;85.17;95712.84;5049081;28;20985;-74
2021/08/16 07:11:47;;;;;;;8.75;4.38;;;;;;;18.46;84.78;95707.72;5040395;28;20427;-74
2021/08/16 07:14:13;;;;;;;12.83;3.93;;;;;;;18.89;84.31;95713.31;5028982;28;20427;-74
2021/08/16 07:16:38;;;;;;;9.85;3.80;;;;;;;18.78;83.00;95714.34;5030539;28;20418;-74
2021/08/16 07:19:03;;;;;;;7.80;4.00;;;;;;;18.81;82.34;95711.44;5039479;28;20433;-74
2021/08/16 07:21:29;;;;;;;7.13;3.97;;;;;;;18.67;80.37;95711.91;5049702;28;20419;-74
2021/08/16 07:23:55;;;;;;;7.20;3.67;;;;;;;18.88;80.46;95715.09;5049664;28;20469;-75
2021/08/16 07:26:22;;;;;;;10.85;3.88;;;;;;;19.13;80.65;95713.53;5049990;28;20827;-74
2021/08/16 07:28:48;;;;;;;7.43;3.60;;;;;;;18.96;80.33;95720.44;5050348;28;20421;-74
2021/08/16 07:31:13;;;;;;;7.55;3.42;;;;;;;18.82;81.73;95721.75;5049139;28;20421;-74
2021/08/16 07:33:39;;;;;;;4.50;3.70;;;;;;;18.80;83.03;95725.50;5050441;28;20911;-73
2021/08/16 07:36:05;;;;;;;9.60;4.25;;;;;;;18.92;81.24;95724.34;5050577;28;20417;-74
2021/08/16 07:38:30;;;;;;;8.52;3.92;;;;;;;19.11;78.88;95718.13;5050400;28;20917;-73
2021/08/16 07:40:56;;;;;;;9.10;3.80;;;;;;;19.29;77.56;95721.56;5050591;28;20421;-73
2021/08/16 07:43:22;;;;;;;7.67;4.17;;;;;;;18.92;78.67;95723.50;5051172;28;21256;-73
2021/08/16 07:45:49;;;;;;;7.95;4.50;;;;;;;18.83;76.63;95717.34;5049013;28;20417;-73
2021/08/16 07:48:14;;;;;;;6.00;3.97;;;;;;;19.13;77.48;95720.56;4989711;28;1730941;-74
2021/08/16 07:50:40;;;;;;;6.40;4.30;;;;;;;19.34;75.46;95718.47;5051414;28;20405;-74
2021/08/16 07:53:06;;;;;;;7.75;4.28;;;;;;;19.24;76.59;95723.78;5051444;28;20416;-74
2021/08/16 07:55:32;;;;;;;9.43;4.50;;;;;;;19.14;76.17;95706.50;5049380;28;20915;-74
2021/08/16 07:57:57;;;;;;;8.07;4.07;;;;;;;19.21;77.13;95707.53;5049792;28;20456;-74
2021/08/16 08:00:24;;;;;;;12.27;4.47;;;;;;;19.44;76.09;95710.53;5051641;28;20825;-74
2021/08/16 08:02:50;;;;;;;6.88;4.25;;;;;;;19.44;76.75;95708.72;5051120;28;20409;-74
2021/08/16 08:05:18;;;;;;;9.50;4.43;;;;;;;19.15;76.37;95708.97;5050781;28;20425;-75
2021/08/16 08:07:44;;;;;;;7.40;4.93;;;;;;;19.32;76.39;95702.06;5051050;28;20434;-75
2021/08/16 08:10:11;;;;;;;8.35;4.35;;;;;;;19.43;77.05;95709.69;5050917;28;20413;-73
2021/08/16 08:12:38;;;;;;;6.97;4.57;;;;;;;19.46;75.08;95719.06;5050933;28;20420;-74
2021/08/16 08:15:05;;;;;;;7.82;4.63;;;;;;;19.16;77.38;95717.66;5051112;28;20814;-74
2021/08/16 08:17:32;;;;;;;6.07;4.13;;;;;;;19.08;77.36;95721.03;5050704;28;20421;-74
2021/08/16 08:19:58;;;;;;;9.20;5.28;;;;;;;18.77;74.58;95716.16;5050948;28;20433;-74
2021/08/16 08:22:24;;;;;;;10.33;5.77;;;;;;;18.65;73.85;95714.69;5050823;28;20483;-74
2021/08/16 08:24:50;;;;;;;9.02;5.05;;;;;;;18.65;74.37;95719.06;5051113;28;20897;-73
2021/08/16 08:27:15;;;;;;;10.43;5.37;;;;;;;18.51;75.23;95721.22;5050229;28;20455;-73
2021/08/16 08:29:41;;;;;;;8.30;5.23;;;;;;;18.59;75.32;95723.13;5049705;28;20414;-73
2021/08/16 08:32:07;;;;;;;11.90;5.70;;;;;;;18.45;76.18;95731.47;5050872;28;20502;-74
2021/08/16 08:34:34;;;;;;;10.80;5.15;;;;;;;18.20;76.21;95722.47;5050875;28;20432;-72
2021/08/16 08:37:00;;;;;;;8.80;4.75;;;;;;;18.08;77.25;95733.13;5044714;28;20809;-72
2021/08/16 08:39:25;;;;;;;11.13;5.00;;;;;;;18.04;79.04;95730.94;5049672;28;20443;-75
2021/08/16 08:41:54;;;;;;;8.40;4.50;;;;;;;17.91;78.59;95733.91;5046991;28;20446;-74
2021/08/16 08:44:22;;;;;;;9.63;4.95;;;;;;;17.96;78.05;95733.47;5044948;28;20428;-77
2021/08/16 08:46:48;;;;;;;10.00;5.03;;;;;;;17.99;78.70;95738.44;5050112;28;20695;-77
2021/08/16 08:49:14;;;;;;;6.72;4.32;;;;;;;17.95;77.51;95739.66;5042615;28;20479;-72
2021/08/16 08:51:41;;;;;;;9.55;4.97;;;;;;;17.97;78.04;95742.97;5050182;28;20421;-73
2021/08/16 08:54:08;;;;;;;7.72;5.30;;;;;;;18.11;77.24;95734.66;5050147;28;20423;-73
2021/08/16 08:56:33;;;;;;;12.50;5.05;;;;;;;17.88;77.11;95723.69;5049622;28;20425;-73
2021/08/16 08:58:59;;;;;;;6.37;4.67;;;;;;;18.09;77.35;95729.53;5051553;28;20966;-73
2021/08/16 09:01:25;;;;;;;10.25;4.88;;;;;;;18.42;75.52;95735.22;5054303;28;20475;-73
2021/08/16 09:03:52;;;;;;;9.17;4.70;;;;;;;18.61;74.98;95729.03;5050963;28;20421;-70
2021/08/16 09:06:27;;;;;;;11.60;4.37;;;;;;;18.80;73.75;95741.25;5045102;28;20471;-73
2021/08/16 09:08:54;;;;;;;6.53;4.38;;;;;;;18.70;74.68;95736.03;5045235;28;20424;-72
2021/08/16 09:11:19;;;;;;;5.82;4.47;;;;;;;18.62;74.00;95736.78;5043503;28;20462;-74
2021/08/16 09:13:52;;;;;;;7.10;4.57;;;;;;;18.47;75.97;95746.09;5053573;28;20848;-72
2021/08/16 09:16:18;;;;;;;7.20;4.10;;;;;;;18.48;75.66;95745.13;5052875;28;20439;-74
2021/08/16 09:18:44;;;;;;;7.53;4.47;;;;;;;18.66;75.24;95733.88;5044672;28;20894;-73
2021/08/16 09:21:11;;;;;;;11.27;4.83;;;;;;;18.65;75.77;95740.06;5046839;28;20454;-73
2021/08/16 09:23:41;;;;;;;9.13;4.20;;;;;;;18.60;73.08;95741.31;5052373;28;20774;-73
2021/08/16 09:26:10;;;;;;;7.50;4.27;;;;;;;18.51;74.67;95738.78;5053667;28;20927;-73
2021/08/16 09:28:35;;;;;;;8.73;4.30;;;;;;;18.44;74.90;95730.66;5044354;28;20928;-73
2021/08/16 09:31:09;;;;;;;9.60;4.83;;;;;;;18.47;73.83;95727.75;5053999;28;20418;-72
2021/08/16 09:33:35;;;;;;;9.85;4.68;;;;;;;18.45;75.23;95727.06;5053779;28;20417;-73
2021/08/16 09:36:00;;;;;;;19.98;4.82;;;;;;;18.49;75.54;95714.47;5053669;28;20421;-73
2021/08/16 09:38:34;;;;;;;7.20;4.57;;;;;;;18.66;75.12;95707.63;5052541;28;20993;-73
2021/08/16 09:41:00;;;;;;;8.07;4.25;;;;;;;18.90;73.19;95702.66;5053731;28;20764;-74
2021/08/16 09:43:28;;;;;;;6.82;4.20;;;;;;;19.31;72.28;95703.84;5053974;28;20504;-74
2021/08/16 09:45:53;;;;;;;10.48;4.07;;;;;;;19.09;71.46;95699.06;5053676;28;20417;-74
2021/08/16 09:49:14;;;;;;;5.70;4.30;;;;;;;19.11;72.94;95702.38;5052185;28;20499;-74
2021/08/16 09:51:40;;;;;;;6.03;4.57;;;;;;;19.50;71.60;95699.38;5053684;28;20911;-74
2021/08/16 09:54:05;;;;;;;10.43;4.35;;;;;;;19.63;71.85;95707.72;5052987;28;20416;-73
2021/08/16 09:56:31;;;;;;;9.87;3.70;;;;;;;19.80;68.74;95692.88;5053580;28;20503;-73
2021/08/16 09:59:20;;;;;;;10.03;4.77;;;;;;;19.65;67.73;95704.94;5055436;28;20899;-73
2021/08/16 10:01:46;;;;;;;14.37;4.90;;;;;;;19.89;68.30;95706.91;5054530;28;20798;-73
2021/08/16 10:04:11;;;;;;;8.30;4.40;;;;;;;20.41;66.36;95707.66;5052006;28;20424;-74
2021/08/16 10:06:38;;;;;;;6.93;4.20;;;;;;;20.50;66.34;95696.22;5051684;28;20425;-72
2021/08/16 10:09:04;;;;;;;8.70;4.13;;;;;;;20.04;67.57;95708.81;5052757;28;20421;-72
2021/08/16 10:11:30;;;;;;;8.40;3.97;;;;;;;19.75;67.06;95700.41;5048500;28;20930;-72
2021/08/16 10:13:59;;;;;;;13.52;4.85;;;;;;;19.51;69.15;95709.75;5035079;28;20426;-72
2021/08/16 10:16:29;;;;;;;8.20;4.30;;;;;;;19.32;69.51;95705.50;5040938;28;20975;-72
2021/08/16 10:19:01;;;;;;;9.52;3.90;;;;;;;19.34;69.37;95710.59;5352292;22;20437;-72
2021/08/16 10:21:27;;;;;;;8.20;4.50;;;;;;;19.17;69.38;95708.78;5035841;28;20506;-72
2021/08/16 10:23:54;;;;;;;9.13;4.32;;;;;;;18.96;69.85;95703.88;5032987;28;20422;-72
2021/08/16 10:26:25;;;;;;;12.25;4.60;;;;;;;18.81;69.19;95707.00;5041759;28;20417;-72
2021/08/16 10:28:53;;;;;;;8.32;4.78;;;;;;;18.89;70.82;95711.50;5052506;28;20414;-75
2021/08/16 10:31:26;;;;;;;6.25;4.38;;;;;;;19.07;70.69;95701.84;5044226;28;20424;-72
2021/08/16 10:33:52;;;;;;;6.70;4.00;;;;;;;19.19;69.70;95693.72;5052599;28;20496;-69
2021/08/16 10:36:18;;;;;;;8.77;4.00;;;;;;;19.38;69.08;95690.09;5044863;28;20423;-72
2021/08/16 10:38:48;;;;;;;11.50;4.50;;;;;;;19.28;69.19;95690.19;5051562;28;20409;-72
2021/08/16 10:41:30;;;;;;;8.83;4.27;;;;;;;19.40;67.94;95686.38;5052391;28;20461;-74
2021/08/16 10:43:57;;;;;;;12.35;4.07;;;;;;;19.16;68.11;95694.03;5052294;28;20509;-73
2021/08/16 10:46:24;;;;;;;10.23;4.60;;;;;;;18.91;70.21;95709.56;5052964;28;21144;-73
2021/08/16 10:49:30;;;;;;;6.28;4.10;;;;;;;18.78;70.31;95691.56;5052182;28;20421;-74
2021/08/16 10:51:55;;;;;;;10.27;4.20;;;;;;;18.86;70.90;95696.88;5051985;28;20422;-74
2021/08/16 10:54:22;;;;;;;6.50;4.00;;;;;;;19.20;71.56;95698.00;5053437;28;20487;-73
2021/08/16 10:56:50;;;;;;;8.13;4.15;;;;;;;19.11;68.11;95681.38;5051555;28;20501;-74
2021/08/16 10:59:16;;;;;;;9.40;3.73;;;;;;;19.32;67.10;95688.94;5052136;28;20921;-74
2021/08/16 11:01:44;;;;;;;6.23;3.77;;;;;;;19.13;67.07;95689.06;5050749;28;20504;-74
2021/08/16 11:04:15;;;;;;;9.00;4.15;;;;;;;18.98;68.29;95689.59;5046772;28;20445;-74
2021/08/16 11:06:52;;;;;;;8.88;4.35;;;;;;;18.99;69.52;95691.28;5039371;28;20425;-73
2021/08/16 11:09:23;;;;;;;7.83;3.63;;;;;;;19.06;68.49;95688.88;5033156;28;20514;-73
2021/08/16 11:11:53;;;;;;;7.35;3.95;;;;;;;19.12;69.02;95682.19;5031921;28;20415;-73
2021/08/16 11:14:23;;;;;;;9.10;3.83;;;;;;;18.94;67.82;95680.38;5030769;28;20464;-73
2021/08/16 11:16:50;;;;;;;6.75;3.75;;;;;;;18.96;67.74;95691.56;5032120;28;20483;-73
2021/08/16 11:19:15;;;;;;;7.68;4.30;;;;;;;19.31;67.76;95687.25;5039226;28;20423;-73
2021/08/16 11:21:53;;;;;;;6.85;4.00;;;;;;;19.55;65.78;95687.47;5049966;28;20508;-74
2021/08/16 11:24:26;;;;;;;9.07;4.20;;;;;;;19.48;66.63;95686.41;5051357;28;20891;-73